Time;durP1;ratioP1;P1;durP2;ratioP2;P2;SDS_P1;SDS_P2;PMS_P1;PMS_P2;Temp;Humidity;BMP_temperature;BMP_pressure;BME280_temperature;BME280_humidity;BME280_pressure;Samples;Min_cycle;Max_cycle;Signal;HPM_P1;HPM_P2
2023/09/20 00:04:01;;;;;;;2.42;1.00;;;;;;;21.82;46.61;100862.50;16109457;19;129369;-55
2023/09/20 00:09:23;;;;;;;3.37;1.17;;;;;;;21.81;46.76;100855.25;16106206;19;130477;-55
2023/09/20 00:14:45;;;;;;;3.50;0.98;;;;;;;21.81;46.84;100863.63;16112170;19;131856;-53
2023/09/20 00:20:14;;;;;;;2.25;1.15;;;;;;;21.80;46.75;100859.16;16110782;19;130569;-51
2023/09/20 00:25:36;;;;;;;3.63;1.00;;;;;;;21.79;46.66;100863.03;16117420;19;129531;-53
2023/09/20 00:30:58;;;;;;;3.15;1.35;;;;;;;21.79;46.61;100860.25;16126418;19;129622;-56
2023/09/20 00:36:20;;;;;;;3.20;1.10;;;;;;;21.79;46.86;100859.44;16126153;19;130531;-58
2023/09/20 00:41:42;;;;;;;1.92;0.95;;;;;;;21.78;46.86;100861.41;16124187;19;130676;-56
2023/09/20 00:47:05;;;;;;;1.75;0.75;;;;;;;21.77;46.75;100848.56;16127693;19;129555;-53
2023/09/20 00:52:28;;;;;;;3.78;0.82;;;;;;;21.76;46.74;100852.47;16127706;19;130062;-56
2023/09/20 00:57:53;;;;;;;2.08;0.88;;;;;;;21.76;46.93;100846.03;16126376;19;131000;-55
2023/09/20 01:03:18;;;;;;;2.22;0.75;;;;;;;21.76;46.52;100855.25;16117611;19;129642;-52
2023/09/20 01:08:41;;;;;;;;;;;;;;;21.73;46.63;100853.00;16127885;19;130075;-55
2023/09/20 01:14:04;;;;;;;1.02;0.47;;;;;;;21.74;46.67;100846.31;16127215;19;129706;-56
2023/09/20 01:19:28;;;;;;;2.15;0.80;;;;;;;21.74;46.98;100839.91;16122237;19;130928;-56
2023/09/20 01:24:51;;;;;;;1.90;0.68;;;;;;;21.74;46.69;100840.75;16128140;19;129919;-56
2023/09/20 01:30:12;;;;;;;2.55;0.70;;;;;;;21.73;46.85;100841.84;16120172;19;129432;-55
2023/09/20 01:35:37;;;;;;;1.90;0.88;;;;;;;21.73;46.52;100839.06;16115697;19;130218;-55
2023/09/20 01:40:59;;;;;;;2.80;0.88;;;;;;;21.72;46.73;100833.78;16119969;19;130906;-54
2023/09/20 01:46:25;;;;;;;2.08;0.80;;;;;;;21.73;46.69;100829.88;16116913;19;130127;-53
2023/09/20 01:51:47;;;;;;;2.03;0.73;;;;;;;21.72;46.53;100817.09;16119068;19;129564;-51
2023/09/20 01:57:09;;;;;;;2.30;0.68;;;;;;;21.71;46.71;100805.09;16122567;19;129311;-58
2023/09/20 02:02:31;;;;;;;1.65;0.90;;;;;;;21.71;46.99;100802.31;16121063;19;131684;-54
2023/09/20 02:07:56;;;;;;;2.42;0.98;;;;;;;21.72;46.68;100794.81;16118002;19;131517;-57
2023/09/20 02:13:18;;;;;;;1.58;0.63;;;;;;;21.72;46.63;100792.03;16117339;19;129596;-58
2023/09/20 02:18:40;;;;;;;2.72;0.90;;;;;;;21.71;46.69;100787.56;16121042;19;129797;-55
2023/09/20 02:24:03;;;;;;;2.20;0.80;;;;;;;21.72;46.39;100778.09;16116486;19;129241;-53
2023/09/20 02:29:25;;;;;;;2.65;0.90;;;;;;;21.71;46.58;100782.00;16120501;19;129538;-49
2023/09/20 02:34:47;;;;;;;5.10;0.95;;;;;;;21.70;46.72;100770.00;16117304;19;130115;-57
2023/09/20 02:40:19;;;;;;;1.98;1.00;;;;;;;21.70;46.56;100772.78;16118408;19;130152;-54
2023/09/20 02:45:45;;;;;;;2.17;1.00;;;;;;;21.70;46.49;100771.97;16122285;19;129599;-56
2023/09/20 02:51:07;;;;;;;3.50;1.00;;;;;;;21.69;46.64;100762.75;16129789;19;129581;-53
2023/09/20 02:56:29;;;;;;;2.58;1.15;;;;;;;21.70;46.41;100763.59;16123836;19;130619;-55
2023/09/20 03:01:53;;;;;;;2.08;1.13;;;;;;;21.69;46.42;100754.41;16123211;19;129376;-56
2023/09/20 03:07:15;;;;;;;2.88;1.05;;;;;;;21.69;46.85;100748.00;16120586;19;130566;-55
2023/09/20 03:12:46;;;;;;;2.72;1.05;;;;;;;21.70;46.51;100747.72;16118011;19;130487;-54
2023/09/20 03:18:09;;;;;;;2.95;1.00;;;;;;;21.67;46.43;100742.69;16120085;19;130628;-53
2023/09/20 03:23:31;;;;;;;2.35;1.13;;;;;;;21.67;46.60;100742.69;16115718;19;132949;-54
2023/09/20 03:28:56;;;;;;;1.83;0.93;;;;;;;21.66;46.79;100736.31;16120763;19;129620;-52
2023/09/20 03:34:21;;;;;;;2.83;1.20;;;;;;;21.66;46.44;100738.25;16119752;19;130838;-55
2023/09/20 03:39:42;;;;;;;2.00;1.00;;;;;;;21.65;46.88;100736.59;16122553;19;129554;-51
2023/09/20 03:45:06;;;;;;;2.15;0.90;;;;;;;21.65;46.47;100739.38;16117448;19;130904;-52
2023/09/20 03:50:28;;;;;;;3.05;1.00;;;;;;;21.64;47.00;100734.91;16112566;19;130731;-56
2023/09/20 03:55:50;;;;;;;2.75;1.40;;;;;;;21.64;46.54;100734.91;16110602;19;133785;-55
2023/09/20 04:01:13;;;;;;;2.50;0.98;;;;;;;21.63;46.65;100730.44;16111478;19;129864;-57
2023/09/20 04:06:35;;;;;;;2.55;1.10;;;;;;;21.63;46.76;100720.13;16112934;19;129682;-55
2023/09/20 04:11:57;;;;;;;2.53;1.25;;;;;;;21.62;46.92;100714.84;16111672;19;129484;-55
2023/09/20 04:17:21;;;;;;;4.60;1.35;;;;;;;21.62;47.05;100709.28;16111065;19;131001;-56
2023/09/20 04:22:43;;;;;;;3.83;1.30;;;;;;;21.61;46.56;100699.25;16109762;19;131088;-55
2023/09/20 04:28:05;;;;;;;2.63;1.30;;;;;;;21.60;46.55;100689.22;16108231;19;129458;-56
2023/09/20 04:33:27;;;;;;;5.10;1.40;;;;;;;21.60;46.99;100680.88;16108290;19;131231;-53
2023/09/20 04:38:50;;;;;;;3.55;1.30;;;;;;;21.59;46.92;100681.97;16106663;19;129939;-55
2023/09/20 04:44:13;;;;;;;3.13;1.40;;;;;;;21.58;46.71;100677.53;16109529;19;129598;-54
2023/09/20 04:49:37;;;;;;;5.10;1.52;;;;;;;21.57;46.92;100668.34;16109186;19;130662;-53
2023/09/20 04:54:59;;;;;;;2.85;1.40;;;;;;;21.57;47.02;100681.41;16107992;19;130637;-55
2023/09/20 05:00:26;;;;;;;3.67;1.52;;;;;;;21.56;47.09;100663.03;16108488;19;131389;-55
2023/09/20 05:05:50;;;;;;;4.43;1.38;;;;;;;21.57;46.70;100670.28;16108327;19;129962;-52
2023/09/20 05:11:15;;;;;;;3.25;1.27;;;;;;;21.56;46.75;100658.31;16109986;19;130543;-51
2023/09/20 05:16:37;;;;;;;4.03;1.50;;;;;;;21.55;46.57;100662.22;16124574;19;129632;-55
2023/09/20 05:22:00;;;;;;;2.35;1.20;;;;;;;21.54;46.72;100666.09;16121071;19;130007;-55
2023/09/20 05:27:23;;;;;;;3.28;1.60;;;;;;;21.54;46.63;100670.84;16122372;19;130883;-53
2023/09/20 05:32:47;;;;;;;3.90;1.60;;;;;;;21.52;46.67;100668.31;16122236;19;130311;-55
2023/09/20 05:38:10;;;;;;;2.42;1.15;;;;;;;21.52;46.79;100663.59;16121516;19;130959;-51
2023/09/20 05:43:34;;;;;;;4.20;1.30;;;;;;;21.51;47.02;100661.94;16115899;19;130779;-53
2023/09/20 05:48:56;;;;;;;4.20;1.25;;;;;;;21.50;46.82;100663.03;16115796;19;129552;-49
2023/09/20 05:54:21;;;;;;;3.90;1.33;;;;;;;21.50;46.71;100651.91;16119432;19;129575;-53
2023/09/20 05:59:43;;;;;;;3.05;1.10;;;;;;;21.50;47.02;100654.69;16123639;19;129575;-53
2023/09/20 06:05:08;;;;;;;2.88;1.02;;;;;;;21.51;46.83;100669.44;16124424;19;133791;-54
2023/09/20 06:10:31;;;;;;;;;;;;;;;21.47;47.00;100657.97;16124509;19;129652;-53
2023/09/20 06:15:52;;;;;;;5.60;1.70;;;;;;;21.50;46.87;100664.97;16117822;19;129845;-52
2023/09/20 06:21:17;;;;;;;6.00;1.73;;;;;;;21.49;46.68;100658.56;16120833;19;130116;-55
2023/09/20 06:26:40;;;;;;;8.77;1.70;;;;;;;21.48;46.44;100656.88;16117240;19;131425;-58
2023/09/20 06:32:03;;;;;;;5.75;1.20;;;;;;;21.55;46.65;100658.56;16121082;19;130137;-56
2023/09/20 06:37:26;;;;;;;4.47;1.30;;;;;;;21.62;46.42;100662.78;16117639;19;130297;-56
2023/09/20 06:42:52;;;;;;;6.43;1.88;;;;;;;21.73;46.54;100648.88;16119024;19;130365;-57
2023/09/20 06:48:15;;;;;;;9.00;1.70;;;;;;;21.79;46.13;100648.63;16116479;19;129941;-57
2023/09/20 06:53:37;;;;;;;9.38;1.70;;;;;;;21.82;46.16;100650.06;16114473;19;129519;-52
2023/09/20 06:59:01;;;;;;;7.35;1.70;;;;;;;21.83;46.00;100646.97;16118397;19;129521;-55
2023/09/20 07:04:25;;;;;;;8.23;1.58;;;;;;;21.83;46.48;100641.41;16118501;19;130697;-49
2023/09/20 07:09:47;;;;;;;7.47;1.75;;;;;;;21.88;46.02;100634.19;16116794;19;130223;-51
2023/09/20 07:15:14;;;;;;;3.58;1.33;;;;;;;21.91;46.56;100642.00;16118191;19;129604;-54
2023/09/20 07:20:36;;;;;;;4.43;1.52;;;;;;;21.95;46.11;100640.31;16114106;19;130621;-48
2023/09/20 07:25:59;;;;;;;5.40;1.80;;;;;;;21.97;46.41;100644.47;16115262;19;129656;-52
2023/09/20 07:31:21;;;;;;;3.63;1.40;;;;;;;22.01;46.22;100644.78;16114264;19;130484;-48
2023/09/20 07:36:49;;;;;;;4.55;1.52;;;;;;;22.01;46.21;100642.00;16111520;19;129599;-48
2023/09/20 07:42:13;;;;;;;5.45;1.40;;;;;;;22.01;46.31;100636.44;16114069;19;130155;-44
2023/09/20 07:47:35;;;;;;;3.55;1.42;;;;;;;22.02;46.15;100632.53;16113192;19;130164;-49
2023/09/20 07:52:57;;;;;;;3.33;1.40;;;;;;;22.02;46.21;100635.31;16115389;19;130217;-49
2023/09/20 07:58:19;;;;;;;2.88;1.48;;;;;;;22.05;46.13;100631.97;16113281;19;130230;-51
2023/09/20 08:03:50;;;;;;;9.30;2.05;;;;;;;22.09;45.68;100644.22;16114000;19;131013;-54
2023/09/20 08:09:14;;;;;;;4.47;1.40;;;;;;;22.10;45.95;100645.91;16112971;19;129984;-54
2023/09/20 08:14:36;;;;;;;4.28;1.55;;;;;;;22.15;45.88;100647.03;16112254;19;129370;-52
2023/09/20 08:19:58;;;;;;;6.70;1.58;;;;;;;22.14;45.88;100640.63;16113975;19;130929;-51
2023/09/20 08:59:52;;;;;;;2.03;1.30;;;;;;;22.11;46.16;100647.59;16126494;19;130167;-55
2023/09/20 09:05:15;;;;;;;3.40;1.40;;;;;;;22.13;46.24;100642.56;16123238;19;129684;-57
2023/09/20 09:10:37;;;;;;;3.35;1.48;;;;;;;22.13;46.20;100648.16;16123939;19;130112;-57
2023/09/20 09:15:59;;;;;;;2.70;1.50;;;;;;;22.15;46.51;100644.25;16121786;19;129803;-56
2023/09/20 09:21:22;;;;;;;4.75;1.58;;;;;;;22.16;46.16;100651.47;16124452;19;129402;-56
2023/09/20 09:26:46;;;;;;;2.80;1.38;;;;;;;22.17;46.09;100644.78;16120804;19;132297;-54
2023/09/20 09:32:08;;;;;;;3.65;1.55;;;;;;;22.19;46.44;100642.56;16124941;19;130866;-55
2023/09/20 09:37:32;;;;;;;3.10;1.50;;;;;;;22.20;46.19;100644.25;16122574;19;129662;-58
2023/09/20 09:42:54;;;;;;;3.03;1.40;;;;;;;22.22;45.96;100644.84;16119668;19;129741;-56
2023/09/20 09:48:16;;;;;;;4.72;1.67;;;;;;;22.23;45.83;100638.16;16122475;19;129320;-55
2023/09/20 09:53:41;;;;;;;2.78;1.45;;;;;;;22.23;46.11;100632.56;16119512;19;129540;-57
2023/09/20 09:59:05;;;;;;;4.47;1.48;;;;;;;22.24;46.07;100640.66;16123154;19;130199;-57
2023/09/20 10:04:28;;;;;;;7.13;1.65;;;;;;;22.24;45.97;100628.69;16122296;19;129676;-54
2023/09/20 10:09:52;;;;;;;4.43;1.38;;;;;;;22.25;46.10;100617.25;16124504;19;130611;-58
2023/09/20 10:15:15;;;;;;;2.43;1.40;;;;;;;22.27;45.95;100615.03;16122331;19;129801;-56
2023/09/20 10:21:00;;;;;;;3.85;1.35;;;;;;;22.30;46.05;100619.19;16118906;19;129876;-57
2023/09/20 10:26:23;;;;;;;2.40;1.23;;;;;;;22.26;45.81;100621.69;16119588;19;130749;-56
2023/09/20 10:31:47;;;;;;;2.92;1.27;;;;;;;22.27;45.90;100615.03;16119340;19;134091;-56
2023/09/20 10:37:10;;;;;;;7.72;1.52;;;;;;;22.25;45.86;100611.66;16118959;19;129399;-57
2023/09/20 10:42:33;;;;;;;6.10;1.55;;;;;;;22.26;45.79;100602.19;16121256;19;129807;-56
2023/09/20 10:47:55;;;;;;;5.03;1.10;;;;;;;22.28;45.86;100590.75;16121221;19;129511;-56
2023/09/20 10:53:22;;;;;;;4.60;1.20;;;;;;;22.29;45.97;100584.06;16117677;19;130031;-58
2023/09/20 10:58:44;;;;;;;4.68;1.33;;;;;;;22.31;45.56;100579.06;16116755;19;130643;-59
2023/09/20 11:04:07;;;;;;;3.30;1.10;;;;;;;22.35;45.90;100577.41;16118212;19;129592;-58
2023/09/20 11:09:38;;;;;;;2.97;1.40;;;;;;;22.38;45.75;100576.00;16119719;19;130742;-57
2023/09/20 11:15:01;;;;;;;6.40;1.40;;;;;;;22.41;45.50;100572.66;16117957;19;130350;-56
2023/09/20 11:20:24;;;;;;;2.92;0.90;;;;;;;22.42;45.38;100569.56;16118227;19;130406;-58
2023/09/20 11:25:48;;;;;;;2.92;1.30;;;;;;;22.43;45.77;100576.81;16117404;19;130819;-54
2023/09/20 11:31:27;;;;;;;3.25;1.15;;;;;;;22.46;45.48;100580.16;16114954;19;133891;-52
2023/09/20 11:36:53;;;;;;;4.25;1.33;;;;;;;22.43;45.69;100576.81;16114257;19;129532;-56
2023/09/20 11:42:43;;;;;;;5.57;1.10;;;;;;;22.42;45.66;100579.91;16113943;19;131548;-54
2023/09/20 11:48:12;;;;;;;3.75;1.33;;;;;;;22.38;45.75;100579.63;16112727;19;130833;-55
2023/09/20 11:53:35;;;;;;;3.53;1.05;;;;;;;22.35;45.69;100574.59;16111751;19;130132;-56
2023/09/20 11:59:01;;;;;;;4.80;1.20;;;;;;;22.34;45.80;100566.53;16110938;19;130323;-55
2023/09/20 12:04:24;;;;;;;1.90;1.00;;;;;;;22.31;45.70;100551.19;16111412;19;130041;-54
2023/09/20 12:09:47;;;;;;;3.38;1.02;;;;;;;22.31;45.69;100548.41;16111554;19;129675;-54
2023/09/20 12:15:09;;;;;;;2.42;0.80;;;;;;;22.29;45.77;100536.69;16112118;19;130305;-54
2023/09/20 12:20:31;;;;;;;2.47;1.10;;;;;;;22.28;45.62;100532.25;16114327;19;130369;-56
2023/09/20 12:25:53;;;;;;;5.38;1.05;;;;;;;22.27;45.73;100522.25;16124879;19;129454;-54
2023/09/20 12:31:19;;;;;;;3.97;0.98;;;;;;;22.27;46.04;100513.88;16127475;19;129866;-53
2023/09/20 12:36:42;;;;;;;4.03;0.85;;;;;;;22.25;45.36;100510.53;16126596;19;130405;-54
2023/09/20 12:42:04;;;;;;;2.40;0.90;;;;;;;22.25;45.53;100503.00;16128230;19;129387;-54
2023/09/20 12:47:26;;;;;;;2.83;1.02;;;;;;;22.25;45.45;100491.03;16126140;19;130453;-53
2023/09/20 12:52:48;;;;;;;2.42;1.13;;;;;;;22.24;45.40;100484.59;16130335;19;129561;-55
2023/09/20 12:58:13;;;;;;;2.30;0.82;;;;;;;22.24;45.82;100473.47;16125270;19;133216;-55
2023/09/20 13:03:36;;;;;;;1.63;0.90;;;;;;;22.25;46.00;100458.41;16122693;19;129928;-57
2023/09/20 13:08:58;;;;;;;2.35;1.15;;;;;;;22.25;45.60;100457.59;16123989;19;129548;-55
2023/09/20 13:14:21;;;;;;;2.90;0.88;;;;;;;22.26;45.93;100442.53;16123810;19;130205;-52
2023/09/20 13:19:43;;;;;;;2.83;1.00;;;;;;;22.27;45.66;100433.91;16124420;19;131083;-52
2023/09/20 13:25:08;;;;;;;2.88;0.90;;;;;;;22.29;45.70;100430.81;16122874;19;129600;-56
2023/09/20 13:30:31;;;;;;;2.38;1.48;;;;;;;22.28;46.03;100416.06;16122005;19;131104;-52
2023/09/20 13:35:55;;;;;;;3.20;1.10;;;;;;;22.28;45.98;100404.06;16120522;19;131003;-53
2023/09/20 13:41:18;;;;;;;3.35;0.88;;;;;;;22.29;45.91;100397.38;16121103;19;130154;-57
2023/09/20 13:46:40;;;;;;;2.80;0.85;;;;;;;22.28;45.57;100390.13;16121620;19;129945;-53
2023/09/20 13:52:05;;;;;;;1.98;1.15;;;;;;;22.29;45.80;100391.81;16122149;19;130887;-55
2023/09/20 13:57:27;;;;;;;6.55;1.00;;;;;;;22.28;46.15;100381.78;16119277;19;130928;-52
2023/09/20 14:02:50;;;;;;;6.93;1.50;;;;;;;22.29;46.39;100380.66;16119830;19;129903;-54
2023/09/20 14:08:13;;;;;;;2.25;0.80;;;;;;;22.29;46.45;100375.09;16119966;19;130129;-55
2023/09/20 14:13:36;;;;;;;5.82;1.00;;;;;;;22.29;46.00;100380.66;16119882;19;129701;-53
2023/09/20 14:18:58;;;;;;;6.60;1.02;;;;;;;22.29;46.39;100383.44;16115538;19;130659;-54
2023/09/20 14:24:20;;;;;;;3.70;0.88;;;;;;;22.31;46.18;100377.59;16117570;19;129759;-55
2023/09/20 14:29:42;;;;;;;4.63;0.80;;;;;;;22.29;46.31;100380.66;16120224;19;130218;-53
2023/09/20 14:35:06;;;;;;;5.28;1.10;;;;;;;22.28;46.36;100385.41;16117735;19;130877;-53
2023/09/20 14:40:29;;;;;;;4.90;1.20;;;;;;;22.27;45.97;100383.75;16117648;19;129527;-55
2023/09/20 14:45:51;;;;;;;6.13;0.90;;;;;;;22.25;45.96;100379.56;16120281;19;130305;-49
2023/09/20 14:51:17;;;;;;;2.70;1.05;;;;;;;22.25;46.33;100380.41;16121257;19;129700;-52
2023/09/20 14:56:39;;;;;;;4.32;1.30;;;;;;;22.24;46.31;100381.50;16119292;19;130168;-53
2023/09/20 15:02:01;;;;;;;4.32;1.10;;;;;;;22.25;45.75;100385.16;16116643;19;131069;-56
2023/09/20 15:07:23;;;;;;;3.95;1.10;;;;;;;22.23;45.75;100381.81;16116794;19;129402;-54
2023/09/20 15:12:49;;;;;;;4.35;1.20;;;;;;;22.23;45.72;100376.22;16115247;19;130030;-53
2023/09/20 15:18:11;;;;;;;5.50;1.48;;;;;;;22.21;45.92;100372.91;16116939;19;130932;-54
2023/09/20 15:23:34;;;;;;;5.43;1.60;;;;;;;22.21;45.85;100356.19;16111520;19;129551;-53
2023/09/20 15:28:56;;;;;;;4.82;1.42;;;;;;;22.19;45.71;100345.28;16110911;19;130682;-54
2023/09/20 15:34:17;;;;;;;7.45;1.30;;;;;;;22.19;45.64;100331.38;16109256;19;129572;-55
2023/09/20 15:39:40;;;;;;;4.30;1.48;;;;;;;22.19;45.83;100336.09;16109769;19;133048;-54
2023/09/20 15:45:03;;;;;;;3.90;1.40;;;;;;;22.19;45.70;100331.38;16108161;19;129890;-54
2023/09/20 15:50:27;;;;;;;10.48;1.60;;;;;;;22.19;45.44;100325.78;16111752;19;130933;-54
2023/09/20 15:55:49;;;;;;;10.45;1.40;;;;;;;22.19;45.58;100313.81;16109877;19;131531;-52
2023/09/20 16:01:14;;;;;;;2.78;1.55;;;;;;;22.20;46.00;100309.91;16107422;19;129502;-55
2023/09/20 16:06:38;;;;;;;9.68;2.47;;;;;;;22.19;46.13;100288.72;16107385;19;129914;-56
2023/09/20 16:12:01;;;;;;;21.00;5.57;;;;;;;22.19;45.89;100277.59;16107844;19;130268;-54
2023/09/20 16:17:23;;;;;;;31.83;7.47;;;;;;;22.17;46.55;100266.75;16107243;19;130253;-54
2023/09/20 16:22:46;;;;;;;27.83;7.22;;;;;;;22.18;46.95;100245.28;16105847;19;130177;-53
2023/09/20 16:28:08;;;;;;;24.15;7.00;;;;;;;22.17;46.58;100227.72;16106445;19;131128;-55
2023/09/20 16:33:30;;;;;;;18.27;6.50;;;;;;;22.19;47.33;100224.66;16109772;19;129670;-50
2023/09/20 16:38:52;;;;;;;23.48;6.60;;;;;;;22.21;47.01;100225.22;16106137;19;129780;-48
2023/09/20 16:44:14;;;;;;;23.45;6.72;;;;;;;22.24;47.18;100233.84;16111436;19;129812;-53
2023/09/20 16:49:36;;;;;;;21.13;5.97;;;;;;;22.28;47.58;100234.09;16111237;19;130293;-54
2023/09/20 16:54:59;;;;;;;21.30;6.25;;;;;;;22.29;47.39;100216.25;16109391;19;130049;-51
2023/09/20 17:00:23;;;;;;;17.67;5.70;;;;;;;22.30;47.50;100209.56;16104924;19;130353;-54
2023/09/20 17:05:46;;;;;;;19.08;5.65;;;;;;;22.31;47.57;100205.66;16114548;19;130112;-59
2023/09/20 17:11:09;;;;;;;17.13;5.85;;;;;;;22.32;47.21;100204.53;16124411;19;130628;-55
2023/09/20 17:16:31;;;;;;;18.00;5.97;;;;;;;22.31;47.70;100194.50;16122143;19;129396;-53
2023/09/20 17:21:54;;;;;;;15.05;4.88;;;;;;;22.32;47.51;100195.34;16126023;19;130058;-52
2023/09/20 17:27:16;;;;;;;17.50;5.20;;;;;;;22.32;47.58;100184.22;16124666;19;130874;-57
2023/09/20 17:32:51;;;;;;;17.40;5.13;;;;;;;22.30;47.64;100184.47;16124948;19;130439;-55
2023/09/20 17:38:13;;;;;;;12.75;4.57;;;;;;;22.30;47.45;100178.91;16121203;19;130163;-53
2023/09/20 17:43:35;;;;;;;13.25;4.70;;;;;;;22.28;47.52;100176.44;16123375;19;129678;-51
2023/09/20 17:48:57;;;;;;;11.25;4.10;;;;;;;22.27;47.73;100179.50;16121376;19;129954;-52
2023/09/20 17:54:22;;;;;;;16.52;4.60;;;;;;;22.26;47.62;100181.44;16116589;19;130728;-54
2023/09/20 17:59:44;;;;;;;13.90;4.25;;;;;;;22.23;47.55;100182.03;16119008;19;130064;-57
2023/09/20 18:05:07;;;;;;;17.60;4.10;;;;;;;22.23;47.67;100182.03;16122015;19;130725;-52
2023/09/20 18:10:29;;;;;;;17.17;4.25;;;;;;;22.22;47.77;100185.94;16120567;19;129626;-55
2023/09/20 18:15:52;;;;;;;9.65;3.60;;;;;;;22.21;47.61;100183.44;16119366;19;130115;-57
2023/09/20 18:21:15;;;;;;;11.00;3.42;;;;;;;22.22;47.50;100190.69;16118430;19;130641;-55
2023/09/20 18:26:37;;;;;;;12.80;3.78;;;;;;;22.21;47.43;100178.72;16114958;19;130858;-52
2023/09/20 18:32:00;;;;;;;12.88;3.70;;;;;;;22.21;47.29;100180.66;16118831;19;130773;-57
2023/09/20 18:37:26;;;;;;;14.80;3.58;;;;;;;22.20;47.77;100179.81;16118185;19;130793;-58
2023/09/20 18:42:48;;;;;;;13.18;3.55;;;;;;;22.20;47.42;100185.38;16118422;19;129402;-56
2023/09/20 18:48:10;;;;;;;14.43;3.92;;;;;;;22.22;47.31;100187.91;16117742;19;130281;-48
2023/09/20 18:53:33;;;;;;;29.80;4.05;;;;;;;22.23;47.68;100186.78;16113783;19;130072;-48
2023/09/20 18:58:59;;;;;;;13.07;3.80;;;;;;;22.26;47.82;100180.63;16117418;19;129705;-50
2023/09/20 19:04:21;;;;;;;14.57;3.90;;;;;;;22.28;47.81;100183.94;16108283;19;130417;-55
2023/09/20 19:09:44;;;;;;;11.90;3.17;;;;;;;22.31;47.66;100183.38;16116368;19;130508;-55
2023/09/20 19:15:08;;;;;;;14.30;3.13;;;;;;;22.33;47.49;100180.31;16117058;19;130233;-54
2023/09/20 19:20:36;;;;;;;13.38;3.25;;;;;;;22.32;47.73;100179.47;16117766;19;129508;-52
2023/09/20 19:25:58;;;;;;;9.23;2.55;;;;;;;22.34;47.84;100173.63;16114568;19;130018;-52
2023/09/20 19:31:20;;;;;;;7.20;2.70;;;;;;;22.34;47.70;100166.06;16111277;19;130858;-53
2023/09/20 19:36:42;;;;;;;16.48;3.00;;;;;;;22.35;47.77;100173.31;16115800;19;130587;-51
2023/09/20 19:42:04;;;;;;;11.13;2.97;;;;;;;22.36;47.56;100165.78;16113450;19;130333;-55
2023/09/20 19:47:27;;;;;;;31.02;4.25;;;;;;;22.37;47.75;100147.94;16113709;19;131025;-54
2023/09/20 19:52:49;;;;;;;11.68;2.92;;;;;;;22.33;47.83;100144.91;16112690;19;130074;-59
2023/09/20 19:58:12;;;;;;;11.98;2.78;;;;;;;22.33;47.92;100138.50;16112358;19;130701;-51
2023/09/20 20:03:34;;;;;;;15.50;3.38;;;;;;;22.33;47.91;100125.41;16110031;19;129557;-55
2023/09/20 20:08:57;;;;;;;17.60;2.92;;;;;;;22.33;47.95;100119.00;16108758;19;130744;-60
2023/09/20 20:14:19;;;;;;;10.10;2.55;;;;;;;22.32;47.93;100112.59;16115052;19;129602;-56
2023/09/20 20:19:41;;;;;;;12.70;3.03;;;;;;;22.32;48.10;100095.03;16113102;19;129594;-58
2023/09/20 20:25:09;;;;;;;12.63;2.90;;;;;;;22.32;48.18;100090.28;16111390;19;129459;-54
2023/09/20 20:30:32;;;;;;;9.35;2.42;;;;;;;22.31;47.94;100076.66;16114265;19;130045;-51
2023/09/20 20:35:54;;;;;;;12.82;3.22;;;;;;;22.33;47.98;100083.59;16108291;19;130431;-53
2023/09/20 20:41:19;;;;;;;10.38;2.67;;;;;;;22.35;47.90;100072.16;16116196;19;130081;-58
2023/09/20 20:46:43;;;;;;;15.43;2.95;;;;;;;22.34;48.15;100070.50;16126913;19;129637;-53
2023/09/20 20:52:05;;;;;;;11.75;3.30;;;;;;;22.34;47.88;100060.19;16124680;19;130341;-52
2023/09/20 20:57:30;;;;;;;18.92;2.78;;;;;;;22.34;47.65;100051.81;16123981;19;130392;-54
2023/09/20 21:02:52;;;;;;;22.95;3.35;;;;;;;22.36;48.00;100045.94;16124499;19;130294;-52
2023/09/20 21:08:15;;;;;;;28.08;2.97;;;;;;;22.35;47.97;100035.94;16118182;19;129639;-53
2023/09/20 21:13:37;;;;;;;17.90;2.55;;;;;;;22.32;47.71;100033.75;16121674;19;130390;-55
2023/09/20 21:18:59;;;;;;;16.33;2.95;;;;;;;22.29;47.77;100024.00;16121824;19;129605;-58
2023/09/20 21:24:21;;;;;;;14.35;2.53;;;;;;;22.25;47.98;100017.38;16123595;19;129716;-55
2023/09/20 21:29:44;;;;;;;8.75;2.30;;;;;;;22.23;47.64;100016.81;16123692;19;130697;-53
2023/09/20 21:35:06;;;;;;;12.15;2.40;;;;;;;22.20;48.06;100004.28;16121393;19;130563;-51
2023/09/20 21:40:29;;;;;;;8.05;2.17;;;;;;;22.18;47.58;100000.97;16119769;19;129906;-49
2023/09/20 21:45:52;;;;;;;7.55;2.58;;;;;;;22.16;47.88;99997.63;16119351;19;129942;-51
2023/09/20 21:51:14;;;;;;;4.13;2.15;;;;;;;22.14;47.46;99983.16;16119528;19;129745;-53
2023/09/20 21:56:36;;;;;;;8.23;2.22;;;;;;;22.13;47.53;99982.34;16120231;19;130331;-54
2023/09/20 22:01:59;;;;;;;7.35;2.20;;;;;;;22.11;47.77;99972.59;16120582;19;130297;-50
2023/09/20 22:07:21;;;;;;;10.93;2.42;;;;;;;22.09;47.76;99969.31;16119508;19;129257;-55
2023/09/20 22:12:47;;;;;;;7.50;2.00;;;;;;;22.08;47.70;99951.75;16118517;19;130880;-49
2023/09/20 22:18:20;;;;;;;7.90;2.00;;;;;;;22.07;47.77;99943.69;16119602;19;130082;-50
2023/09/20 22:23:42;;;;;;;5.97;1.73;;;;;;;22.06;47.60;99944.81;16115365;19;129800;-59
2023/09/20 22:29:04;;;;;;;4.95;1.98;;;;;;;22.04;47.81;99936.72;16122663;19;131150;-51
2023/09/20 22:34:26;;;;;;;5.80;1.88;;;;;;;22.03;47.42;99920.34;16114879;19;130309;-61
2023/09/20 22:39:50;;;;;;;6.65;1.40;;;;;;;22.01;47.91;99926.22;16119284;19;129516;-61
2023/09/20 22:45:37;;;;;;;4.55;1.42;;;;;;;22.00;47.59;99926.47;16118255;19;130030;-52
2023/09/20 22:50:56;;;;;;;3.63;1.88;;;;;;;21.98;47.51;99912.88;16121050;19;129426;-62
2023/09/20 22:56:18;;;;;;;10.48;1.90;;;;;;;21.96;47.60;99910.38;16117533;19;131005;-53
2023/09/20 23:01:40;;;;;;;5.22;1.92;;;;;;;21.96;47.71;99903.97;16114992;19;130478;-53
2023/09/20 23:07:02;;;;;;;4.40;1.80;;;;;;;21.95;47.52;99902.31;16114372;19;129535;-51
2023/09/20 23:12:24;;;;;;;3.33;1.40;;;;;;;21.94;47.61;99900.63;16114584;19;129316;-58
2023/09/20 23:17:49;;;;;;;7.00;1.90;;;;;;;21.93;47.68;99898.97;16117333;19;129928;-53
2023/09/20 23:23:11;;;;;;;2.90;1.30;;;;;;;21.92;47.54;99881.44;16121036;19;134888;-57
2023/09/20 23:28:33;;;;;;;3.90;1.13;;;;;;;21.92;47.55;99886.19;16114250;19;130363;-55
2023/09/20 23:33:58;;;;;;;2.53;1.50;;;;;;;21.90;47.70;99882.88;16113598;19;131644;-50
2023/09/20 23:39:24;;;;;;;;;;;;;;;21.86;47.49;99874.25;16113633;19;131333;-50
2023/09/20 23:44:46;;;;;;;3.22;1.35;;;;;;;21.88;47.38;99862.84;16115640;19;129657;-52
2023/09/20 23:50:08;;;;;;;3.72;0.93;;;;;;;21.87;47.57;99853.66;16116689;19;130045;-52
2023/09/20 23:55:31;;;;;;;5.53;1.30;;;;;;;21.87;47.49;99852.84;16116088;19;130483;-50
